createdAt,value
2022-11-14T00:01:14.359Z,7.70
2022-11-14T00:03:41.356Z,7.70
2022-11-14T00:06:08.762Z,7.60
2022-11-14T00:11:23.137Z,7.70
2022-11-14T00:16:36.723Z,7.70
2022-11-14T00:19:03.689Z,7.70
2022-11-14T00:21:30.460Z,7.60
2022-11-14T00:23:57.405Z,7.60
2022-11-14T00:26:24.228Z,7.70
2022-11-14T00:28:50.982Z,7.60
2022-11-14T00:31:17.788Z,7.60
2022-11-14T00:33:44.527Z,7.60
2022-11-14T00:36:11.320Z,7.60
2022-11-14T00:38:38.131Z,7.60
2022-11-14T00:41:04.938Z,7.50
2022-11-14T00:43:31.809Z,7.50
2022-11-14T00:45:58.656Z,7.50
2022-11-14T00:48:25.450Z,7.50
2022-11-14T00:50:52.208Z,7.50
2022-11-14T00:53:19.069Z,7.50
2022-11-14T00:55:45.809Z,7.50
2022-11-14T00:58:12.574Z,7.50
2022-11-14T01:00:39.455Z,7.50
2022-11-14T01:03:06.252Z,7.40
2022-11-14T01:08:19.994Z,7.40
2022-11-14T01:10:51.025Z,7.40
2022-11-14T01:13:18.877Z,7.40
2022-11-14T01:15:48.003Z,7.40
2022-11-14T01:18:17.582Z,7.30
2022-11-14T01:20:46.140Z,7.30
2022-11-14T01:23:14.972Z,7.30
2022-11-14T01:25:43.762Z,7.30
2022-11-14T01:28:15.993Z,7.30
2022-11-14T01:33:30.189Z,7.30
2022-11-14T01:38:46.996Z,7.30
2022-11-14T01:44:02.530Z,7.30
2022-11-14T01:46:36.950Z,7.30
2022-11-14T01:49:05.629Z,7.20
2022-11-14T01:54:21.926Z,7.30
2022-11-14T01:56:58.865Z,7.20
2022-11-14T01:59:33.792Z,7.20
2022-11-14T02:02:05.739Z,7.20
2022-11-14T02:04:36.507Z,7.20
2022-11-14T02:07:05.293Z,7.20
2022-11-14T02:09:36.142Z,7.20
2022-11-14T02:12:06.225Z,7.20
2022-11-14T02:14:34.357Z,7.20
2022-11-14T02:17:28.022Z,7.20
2022-11-14T02:19:52.730Z,7.20
2022-11-14T02:22:19.695Z,7.10
2022-11-14T02:24:46.566Z,7.10
2022-11-14T02:27:15.189Z,7.00
2022-11-14T02:29:42.748Z,7.10
2022-11-14T02:32:11.077Z,7.00
2022-11-14T02:34:38.766Z,7.00
2022-11-14T02:37:06.368Z,7.00
2022-11-14T02:39:33.132Z,6.90
2022-11-14T02:41:59.892Z,6.90
2022-11-14T02:44:26.812Z,6.90
2022-11-14T02:46:53.576Z,6.90
2022-11-14T02:52:07.068Z,6.80
2022-11-14T02:57:20.513Z,6.80
2022-11-14T03:05:20.707Z,6.80
2022-11-14T03:10:34.699Z,6.80
2022-11-14T03:15:48.459Z,6.80
2022-11-14T03:20:41.866Z,6.80
2022-11-14T03:23:08.648Z,6.70
2022-11-14T03:25:35.447Z,6.70
2022-11-14T03:28:02.242Z,6.70
2022-11-14T03:30:29.030Z,6.70
2022-11-14T03:32:56.635Z,6.70
2022-11-14T03:35:24.156Z,6.70
2022-11-14T03:37:55.145Z,6.60
2022-11-14T03:43:10.155Z,6.60
2022-11-14T03:48:24.574Z,6.50
2022-11-14T03:53:38.256Z,6.50
2022-11-14T03:56:05.639Z,6.50
2022-11-14T03:58:32.745Z,6.50
2022-11-14T04:00:59.791Z,6.50
2022-11-14T04:06:13.293Z,6.40
2022-11-14T04:08:41.332Z,6.40
2022-11-14T04:11:08.424Z,6.30
2022-11-14T04:13:35.258Z,6.30
2022-11-14T04:18:48.913Z,6.30
2022-11-14T04:21:15.717Z,6.20
2022-11-14T04:23:42.487Z,6.30
2022-11-14T04:26:09.305Z,6.20
2022-11-14T04:28:36.083Z,6.30
2022-11-14T04:31:02.875Z,6.20
2022-11-14T04:33:29.656Z,6.20
2022-11-14T04:35:56.404Z,6.20
2022-11-14T04:38:23.136Z,6.30
2022-11-14T04:40:53.880Z,6.20
2022-11-14T04:43:21.135Z,6.20
2022-11-14T04:45:48.129Z,6.20
2022-11-14T04:48:15.071Z,6.20
2022-11-14T04:50:41.816Z,6.10
2022-11-14T04:53:08.652Z,6.20
2022-11-14T04:55:35.388Z,6.10
2022-11-14T04:58:02.150Z,6.10
2022-11-14T05:03:15.681Z,6.10
2022-11-14T05:05:42.507Z,6.10
2022-11-14T05:08:09.300Z,6.10
2022-11-14T05:10:36.224Z,6.10
2022-11-14T05:13:02.993Z,6.10
2022-11-14T05:15:29.751Z,6.10
2022-11-14T05:17:57.979Z,6.10
2022-11-14T05:20:24.744Z,6.10
2022-11-14T05:22:55.098Z,6.10
2022-11-14T05:25:22.510Z,6.20
2022-11-14T05:27:49.521Z,6.10
2022-11-14T05:30:16.485Z,6.00
2022-11-14T05:32:43.258Z,6.00
2022-11-14T05:35:10.183Z,5.90
2022-11-14T05:37:37.250Z,5.90
2022-11-14T05:40:05.122Z,5.90
2022-11-14T05:42:32.026Z,5.80
2022-11-14T05:44:58.857Z,5.80
2022-11-14T05:47:25.593Z,5.80
2022-11-14T05:49:52.374Z,5.70
2022-11-14T05:52:19.157Z,5.70
2022-11-14T05:54:45.938Z,5.60
2022-11-14T05:57:12.684Z,5.60
2022-11-14T05:59:39.438Z,5.60
2022-11-14T06:02:06.262Z,5.50
2022-11-14T06:04:33.093Z,5.50
2022-11-14T06:06:59.930Z,5.50
2022-11-14T06:09:26.814Z,5.50
2022-11-14T06:11:53.587Z,5.60
2022-11-14T06:17:07.014Z,5.50
2022-11-14T06:22:20.674Z,5.60
2022-11-14T06:27:34.197Z,5.60
2022-11-14T06:32:47.653Z,5.60
2022-11-14T06:35:14.438Z,5.60
2022-11-14T06:37:41.205Z,5.60
2022-11-14T06:40:08.586Z,5.60
2022-11-14T06:42:35.313Z,5.60
2022-11-14T06:45:02.060Z,5.60
2022-11-14T06:47:28.816Z,5.60
2022-11-14T06:49:55.559Z,5.50
2022-11-14T06:52:22.316Z,5.60
2022-11-14T06:54:49.065Z,5.60
2022-11-14T06:57:15.835Z,5.50
2022-11-14T06:59:42.585Z,5.60
2022-11-14T07:02:17.774Z,5.60
2022-11-14T07:07:35.084Z,5.60
2022-11-14T07:12:48.538Z,5.80
2022-11-14T07:18:02.086Z,5.80
2022-11-14T07:20:28.907Z,5.80
2022-11-14T07:22:55.664Z,5.80
2022-11-14T07:25:22.438Z,5.80
2022-11-14T07:27:49.179Z,5.80
2022-11-14T07:30:16.082Z,5.80
2022-11-14T07:32:42.851Z,5.90
2022-11-14T07:35:09.690Z,5.90
2022-11-14T07:40:23.127Z,5.90
2022-11-14T07:45:36.563Z,6.00
2022-11-14T07:50:50.158Z,6.10
2022-11-14T07:53:16.942Z,6.10
2022-11-14T07:55:44.154Z,6.20
2022-11-14T07:58:11.035Z,6.20
2022-11-14T08:00:37.867Z,6.20
2022-11-14T08:06:11.319Z,6.30
2022-11-14T08:08:38.585Z,6.30
2022-11-14T08:11:05.651Z,6.40
2022-11-14T08:13:33.894Z,6.50
2022-11-14T08:16:10.781Z,6.50
2022-11-14T08:18:39.498Z,6.50
2022-11-14T08:21:06.669Z,6.50
2022-11-14T08:23:33.628Z,6.50
2022-11-14T08:26:00.582Z,6.50
2022-11-14T08:28:27.673Z,6.60
2022-11-14T08:30:59.976Z,6.70
2022-11-14T08:33:26.779Z,6.70
2022-11-14T08:38:40.222Z,6.70
2022-11-14T08:41:07.004Z,6.90
2022-11-14T08:43:34.049Z,7.00
2022-11-14T08:46:02.825Z,7.20
2022-11-14T08:48:31.079Z,7.70
2022-11-14T08:51:02.249Z,8.00
2022-11-14T08:53:29.061Z,8.70
2022-11-14T08:55:55.907Z,9.40
2022-11-14T08:58:22.724Z,9.40
2022-11-14T09:00:49.517Z,9.50
2022-11-14T09:03:16.329Z,9.90
2022-11-14T09:05:43.389Z,9.50
2022-11-14T09:08:10.133Z,9.30
2022-11-14T09:10:37.607Z,9.70
2022-11-14T09:13:04.391Z,9.90
2022-11-14T09:15:31.308Z,9.40
2022-11-14T09:17:58.569Z,9.80
2022-11-14T09:20:31.690Z,9.30
2022-11-14T09:23:02.228Z,9.10
2022-11-14T09:25:30.278Z,9.50
2022-11-14T09:27:57.780Z,9.70
2022-11-14T09:30:24.549Z,9.70
2022-11-14T09:32:51.418Z,10.10
2022-11-14T09:35:18.214Z,9.80
2022-11-14T09:37:44.965Z,10.30
2022-11-14T09:40:13.798Z,10.60
2022-11-14T09:42:49.563Z,10.50
2022-11-14T09:45:16.838Z,10.90
2022-11-14T09:50:48.262Z,10.80
2022-11-14T09:53:29.184Z,11.30
2022-11-14T09:55:56.001Z,11.30
2022-11-14T10:01:25.679Z,10.90
2022-11-14T10:04:24.069Z,11.10
2022-11-14T10:07:19.053Z,11.20
2022-11-14T10:09:48.667Z,11.50
2022-11-14T10:12:22.142Z,11.50
2022-11-14T10:15:09.002Z,11.70
2022-11-14T10:17:56.657Z,11.80
2022-11-14T10:23:33.595Z,11.50
2022-11-14T10:26:12.047Z,12.20
2022-11-14T10:29:00.335Z,12.00
2022-11-14T10:31:32.884Z,11.60
2022-11-14T10:34:06.550Z,11.80
2022-11-14T10:37:10.284Z,11.60
2022-11-14T10:39:43.858Z,11.90
2022-11-14T10:42:31.227Z,12.10
2022-11-14T10:48:14.886Z,12.30
2022-11-14T10:50:52.576Z,12.90
2022-11-14T10:53:33.533Z,13.30
2022-11-14T10:56:05.095Z,13.30
2022-11-14T10:58:46.692Z,12.80
2022-11-14T11:04:26.488Z,13.10
2022-11-14T11:09:45.813Z,13.40
2022-11-14T11:12:19.076Z,13.10
2022-11-14T11:14:47.847Z,13.90
2022-11-14T11:17:14.557Z,13.40
2022-11-14T11:19:42.725Z,13.50
2022-11-14T11:22:35.403Z,14.30
2022-11-14T11:25:02.451Z,14.30
2022-11-14T11:27:29.866Z,14.50
2022-11-14T11:33:22.088Z,14.90
2022-11-14T11:38:37.862Z,14.80
2022-11-14T11:41:33.174Z,15.20
2022-11-14T11:44:07.413Z,15.00
2022-11-14T11:49:30.824Z,15.00
2022-11-14T11:52:05.069Z,14.60
2022-11-14T11:54:58.376Z,14.90
2022-11-14T12:00:21.144Z,15.20
2022-11-14T12:02:52.810Z,15.00
2022-11-14T12:05:22.683Z,15.60
2022-11-14T12:08:02.014Z,15.50
2022-11-14T12:10:33.111Z,15.60
2022-11-14T12:13:07.621Z,15.50
2022-11-14T12:15:53.111Z,15.60
2022-11-14T12:19:10.381Z,15.70
2022-11-14T12:21:55.582Z,15.70
2022-11-14T12:24:45.624Z,15.80
2022-11-14T12:27:50.434Z,16.40
2022-11-14T12:30:19.867Z,15.90
2022-11-14T12:32:54.483Z,16.10
2022-11-14T12:35:32.876Z,15.90
2022-11-14T12:38:02.127Z,15.90
2022-11-14T12:40:36.456Z,15.50
2022-11-14T12:43:04.352Z,15.20
2022-11-14T12:45:43.264Z,15.40
2022-11-14T12:48:22.617Z,15.30
2022-11-14T12:50:49.468Z,14.70
2022-11-14T12:53:31.501Z,14.70
2022-11-14T12:56:14.369Z,14.40
2022-11-14T13:02:09.691Z,14.20
2022-11-14T13:10:40.198Z,13.40
2022-11-14T13:13:11.954Z,13.60
2022-11-14T13:15:56.303Z,13.30
2022-11-14T13:18:26.158Z,13.30
2022-11-14T13:21:03.364Z,13.30
2022-11-14T13:23:30.364Z,13.10
2022-11-14T13:26:12.537Z,13.10
2022-11-14T13:28:39.269Z,12.70
2022-11-14T13:31:19.414Z,12.40
2022-11-14T13:33:59.572Z,12.10
2022-11-14T13:39:59.809Z,12.00
2022-11-14T13:42:41.744Z,11.70
2022-11-14T13:45:35.939Z,11.70
2022-11-14T13:48:11.595Z,11.70
2022-11-14T13:53:31.583Z,11.40
2022-11-14T13:58:57.370Z,11.20
2022-11-14T14:04:56.088Z,11.00
2022-11-14T14:07:47.357Z,10.80
2022-11-14T14:10:48.961Z,10.60
2022-11-14T14:13:26.080Z,10.70
2022-11-14T14:19:27.118Z,10.60
2022-11-14T14:22:24.538Z,10.50
2022-11-14T14:25:08.723Z,10.50
2022-11-14T14:31:19.369Z,10.30
2022-11-14T14:33:47.995Z,10.30
2022-11-14T14:39:18.406Z,10.20
2022-11-14T14:41:45.923Z,10.10
2022-11-14T14:44:31.425Z,10.00
2022-11-14T14:49:45.466Z,9.90
2022-11-14T14:52:54.754Z,9.80
2022-11-14T14:55:30.320Z,9.70
2022-11-14T14:58:23.567Z,9.60
2022-11-14T15:00:57.558Z,9.60
2022-11-14T15:03:36.934Z,9.50
2022-11-14T15:06:35.948Z,9.40
2022-11-14T15:09:17.009Z,9.40
2022-11-14T15:11:47.443Z,9.20
2022-11-14T15:17:06.258Z,9.10
2022-11-14T15:22:28.811Z,9.00
2022-11-14T15:25:10.561Z,8.90
2022-11-14T15:27:47.476Z,8.90
2022-11-14T15:30:29.277Z,8.80
2022-11-14T15:32:58.702Z,8.80
2022-11-14T15:35:33.996Z,8.70
2022-11-14T15:38:36.935Z,8.60
2022-11-14T15:41:22.556Z,8.60
2022-11-14T15:43:54.201Z,8.50
2022-11-14T15:46:46.104Z,8.40
2022-11-14T15:49:25.405Z,8.40
2022-11-14T15:51:55.918Z,8.40
2022-11-14T15:54:35.819Z,8.30
2022-11-14T15:57:12.504Z,8.30
2022-11-14T15:59:39.247Z,8.30
2022-11-14T16:02:29.260Z,8.20
2022-11-14T16:04:57.524Z,8.20
2022-11-14T16:10:19.435Z,8.10
2022-11-14T16:12:52.019Z,8.10
2022-11-14T16:15:20.475Z,8.00
2022-11-14T16:17:49.146Z,8.00
2022-11-14T16:20:27.169Z,8.00
2022-11-14T16:22:54.290Z,7.90
2022-11-14T16:25:24.131Z,7.90
2022-11-14T16:27:50.916Z,7.90
2022-11-14T16:30:19.658Z,7.70
2022-11-14T16:32:48.343Z,7.70
2022-11-14T16:35:16.190Z,7.80
2022-11-14T16:37:43.279Z,7.70
2022-11-14T16:40:35.641Z,7.70
2022-11-14T16:43:02.424Z,7.70
2022-11-14T16:45:29.187Z,7.70
2022-11-14T16:47:55.962Z,7.60
2022-11-14T16:50:22.729Z,7.60
2022-11-14T16:52:49.494Z,7.60
2022-11-14T16:55:16.323Z,7.60
2022-11-14T16:57:43.075Z,7.60
2022-11-14T17:00:12.744Z,7.50
2022-11-14T17:02:43.343Z,7.50
2022-11-14T17:05:10.187Z,7.50
2022-11-14T17:07:37.078Z,7.50
2022-11-14T17:10:04.951Z,7.40
2022-11-14T17:12:33.541Z,7.50
2022-11-14T17:15:00.418Z,7.40
2022-11-14T17:17:27.305Z,7.40
2022-11-14T17:19:54.056Z,7.30
2022-11-14T17:22:20.827Z,7.30
2022-11-14T17:24:47.613Z,7.30
2022-11-14T17:27:14.399Z,7.30
2022-11-14T17:29:41.230Z,7.20
2022-11-14T17:34:54.667Z,7.30
2022-11-14T17:40:14.226Z,7.20
2022-11-14T17:42:42.174Z,7.10
2022-11-14T17:45:09.456Z,7.10
2022-11-14T17:47:36.455Z,7.10
2022-11-14T17:52:50.081Z,7.10
2022-11-14T17:55:16.891Z,7.00
2022-11-14T17:57:43.681Z,7.00
2022-11-14T18:00:11.358Z,7.00
2022-11-14T18:02:38.124Z,6.90
2022-11-14T18:05:05.229Z,6.90
2022-11-14T18:07:32.036Z,6.90
2022-11-14T18:09:58.806Z,6.80
2022-11-14T18:12:25.648Z,6.80
2022-11-14T18:14:52.415Z,6.80
2022-11-14T18:17:19.171Z,6.80
2022-11-14T18:19:45.963Z,6.70
2022-11-14T18:22:12.691Z,6.70
2022-11-14T18:24:39.467Z,6.60
2022-11-14T18:27:06.290Z,6.60
2022-11-14T18:29:33.091Z,6.70
2022-11-14T18:31:59.866Z,6.70
2022-11-14T18:34:26.605Z,6.70
2022-11-14T18:36:53.390Z,6.70
2022-11-14T18:39:20.180Z,6.60
2022-11-14T18:41:46.976Z,6.70
2022-11-14T18:44:13.755Z,6.70
2022-11-14T18:49:27.233Z,6.60
2022-11-14T18:51:55.003Z,6.60
2022-11-14T18:54:21.815Z,6.60
2022-11-14T18:56:48.573Z,6.50
2022-11-14T18:59:15.601Z,6.60
2022-11-14T19:01:42.486Z,6.60
2022-11-14T19:04:10.894Z,6.50
2022-11-14T19:06:39.506Z,6.50
2022-11-14T19:09:11.793Z,6.50
2022-11-14T19:11:38.895Z,6.30
2022-11-14T19:16:53.678Z,6.30
2022-11-14T19:19:20.563Z,6.30
2022-11-14T19:21:50.582Z,6.30
2022-11-14T19:24:17.987Z,6.20
2022-11-14T19:29:31.778Z,6.20
2022-11-14T19:31:58.538Z,6.20
2022-11-14T19:34:25.373Z,6.20
2022-11-14T19:36:59.983Z,6.20
2022-11-14T19:39:27.343Z,6.20
2022-11-14T19:41:54.141Z,6.20
2022-11-14T19:44:20.897Z,6.20
2022-11-14T19:46:48.306Z,6.20
2022-11-14T19:49:15.259Z,6.10
2022-11-14T19:51:42.219Z,6.10
2022-11-14T19:54:10.189Z,6.10
2022-11-14T19:56:37.229Z,6.10
2022-11-14T19:59:05.521Z,6.10
2022-11-14T20:04:21.004Z,6.20
2022-11-14T20:06:47.869Z,6.10
2022-11-14T20:09:14.762Z,6.10
2022-11-14T20:11:41.549Z,6.10
2022-11-14T20:14:10.635Z,6.10
2022-11-14T20:16:37.735Z,6.10
2022-11-14T20:19:04.901Z,6.00
2022-11-14T20:24:00.184Z,6.10
2022-11-14T20:26:27.258Z,6.10
2022-11-14T20:28:54.079Z,6.10
2022-11-14T20:31:26.396Z,6.10
2022-11-14T20:33:54.626Z,6.20
2022-11-14T20:39:10.556Z,6.20
2022-11-14T20:44:04.227Z,6.10
2022-11-14T20:46:31.051Z,6.20
2022-11-14T20:51:25.832Z,6.20
2022-11-14T20:53:55.072Z,6.10
2022-11-14T20:59:09.877Z,6.20
2022-11-14T21:01:42.171Z,6.20
2022-11-14T21:04:10.524Z,6.10
2022-11-14T21:06:37.263Z,6.10
2022-11-14T21:09:04.097Z,6.00
2022-11-14T21:11:30.920Z,5.90
2022-11-14T21:13:58.182Z,5.90
2022-11-14T21:16:36.292Z,5.90
2022-11-14T21:19:04.274Z,5.90
2022-11-14T21:21:34.757Z,5.90
2022-11-14T21:24:01.796Z,5.90
2022-11-14T21:26:33.713Z,5.80
2022-11-14T21:31:36.343Z,5.70
2022-11-14T21:34:10.442Z,5.70
2022-11-14T21:36:44.802Z,5.80
2022-11-14T21:39:12.290Z,5.70
2022-11-14T21:41:39.020Z,5.80
2022-11-14T21:44:05.775Z,5.70
2022-11-14T21:46:32.686Z,5.80
2022-11-14T21:48:59.439Z,5.80
2022-11-14T21:51:28.157Z,5.80
2022-11-14T21:53:57.088Z,5.80
2022-11-14T21:56:28.816Z,5.70
2022-11-14T21:58:57.034Z,5.70
2022-11-14T22:01:23.935Z,5.60
2022-11-14T22:03:50.707Z,5.60
2022-11-14T22:06:17.461Z,5.60
2022-11-14T22:08:44.387Z,5.60
2022-11-14T22:11:11.154Z,5.50
2022-11-14T22:13:37.939Z,5.60
2022-11-14T22:16:05.880Z,5.60
2022-11-14T22:18:32.723Z,5.60
2022-11-14T22:20:59.458Z,5.60
2022-11-14T22:23:27.549Z,5.60
2022-11-14T22:25:59.471Z,5.60
2022-11-14T22:28:27.211Z,5.60
2022-11-14T22:31:16.134Z,5.60
2022-11-14T22:33:46.836Z,5.60
2022-11-14T22:36:19.561Z,5.60
2022-11-14T22:38:47.148Z,5.50
2022-11-14T22:41:15.424Z,5.50
2022-11-14T22:43:42.439Z,5.50
2022-11-14T22:46:14.649Z,5.50
2022-11-14T22:48:42.337Z,5.50
2022-11-14T22:51:12.894Z,5.50
2022-11-14T22:53:40.282Z,5.50
2022-11-14T22:58:56.115Z,5.50
2022-11-14T23:01:31.571Z,5.40
2022-11-14T23:04:04.147Z,5.40
2022-11-14T23:06:33.370Z,5.40
2022-11-14T23:09:01.404Z,5.40
2022-11-14T23:11:30.638Z,5.40
2022-11-14T23:16:45.800Z,5.30
2022-11-14T23:19:12.582Z,5.30
2022-11-14T23:21:39.423Z,5.30
2022-11-14T23:24:08.047Z,5.30
2022-11-14T23:26:35.039Z,5.30
2022-11-14T23:29:01.844Z,5.30
2022-11-14T23:31:28.655Z,5.30
2022-11-14T23:33:56.619Z,5.30
2022-11-14T23:36:23.750Z,5.30
2022-11-14T23:38:53.437Z,5.30
2022-11-14T23:44:10.208Z,5.30
2022-11-14T23:46:36.980Z,5.30
2022-11-14T23:49:03.799Z,5.30
2022-11-14T23:51:30.573Z,5.30
2022-11-14T23:53:57.374Z,5.30
2022-11-14T23:56:24.127Z,5.30
2022-11-14T23:58:50.908Z,5.40
